createdAt,value
2023-05-05T00:04:05.592Z,65.28
2023-05-05T00:09:08.514Z,65.18
2023-05-05T00:14:11.488Z,65.78
2023-05-05T00:19:14.277Z,67.06
2023-05-05T00:24:17.096Z,67.61
2023-05-05T00:29:19.890Z,68.35
2023-05-05T00:34:22.901Z,68.46
2023-05-05T00:39:25.698Z,69.06
2023-05-05T00:44:37.968Z,69.49
2023-05-05T00:49:41.245Z,70.09
2023-05-05T00:54:44.134Z,71.58
2023-05-05T00:59:49.367Z,71.99
2023-05-05T01:04:52.818Z,72.85
2023-05-05T01:10:18.001Z,73.84
2023-05-05T01:15:31.786Z,74.45
2023-05-05T01:20:50.408Z,74.98
2023-05-05T01:26:20.091Z,75.31
2023-05-05T01:31:38.974Z,75.78
2023-05-05T01:36:46.157Z,75.35
2023-05-05T01:41:54.257Z,75.76
2023-05-05T01:47:01.350Z,75.82
2023-05-05T01:52:06.150Z,76.53
2023-05-05T01:57:11.335Z,76.31
2023-05-05T02:02:16.251Z,77.08
2023-05-05T02:07:21.547Z,77.29
2023-05-05T02:12:25.080Z,77.39
2023-05-05T02:17:31.264Z,78.16
2023-05-05T02:22:34.204Z,78.75
2023-05-05T02:27:40.974Z,78.64
2023-05-05T02:33:00.223Z,78.47
2023-05-05T02:38:05.732Z,78.04
2023-05-05T02:43:11.962Z,78.04
2023-05-05T02:48:15.134Z,78.12
2023-05-05T02:53:22.347Z,77.89
2023-05-05T02:58:34.870Z,77.83
2023-05-05T03:03:50.413Z,77.70
2023-05-05T03:09:03.210Z,77.50
2023-05-05T03:14:10.094Z,77.61
2023-05-05T03:19:14.516Z,77.62
2023-05-05T03:24:19.016Z,77.64
2023-05-05T03:29:21.982Z,79.58
2023-05-05T03:34:25.763Z,79.52
2023-05-05T03:39:28.535Z,79.00
2023-05-05T03:44:31.361Z,78.44
2023-05-05T03:49:34.135Z,78.45
2023-05-05T03:54:38.347Z,76.91
2023-05-05T03:59:41.406Z,76.18
2023-05-05T04:04:44.965Z,75.40
2023-05-05T04:09:47.726Z,75.35
2023-05-05T04:14:50.484Z,75.93
2023-05-05T04:19:53.255Z,74.89
2023-05-05T04:24:56.036Z,74.99
2023-05-05T04:29:58.881Z,74.52
2023-05-05T04:35:01.706Z,75.36
2023-05-05T04:40:04.914Z,75.49
2023-05-05T04:45:10.357Z,76.02
2023-05-05T04:50:13.939Z,75.44
2023-05-05T04:55:16.712Z,75.26
2023-05-05T05:00:19.526Z,75.21
2023-05-05T05:05:22.512Z,74.86
2023-05-05T05:10:25.740Z,74.19
2023-05-05T05:15:28.590Z,72.76
2023-05-05T05:20:31.762Z,71.81
2023-05-05T05:25:35.983Z,70.21
2023-05-05T05:30:38.951Z,69.06
2023-05-05T05:35:42.923Z,67.09
2023-05-05T05:40:45.711Z,66.44
2023-05-05T05:45:48.549Z,64.42
2023-05-05T05:50:51.469Z,63.80
2023-05-05T05:55:54.182Z,62.26
2023-05-05T06:00:59.162Z,60.06
2023-05-05T06:06:02.178Z,59.76
2023-05-05T06:11:05.038Z,59.55
2023-05-05T06:16:08.410Z,58.39
2023-05-05T06:21:11.450Z,57.47
2023-05-05T06:26:14.494Z,55.66
2023-05-05T06:31:17.573Z,51.24
2023-05-05T06:36:20.514Z,45.23
2023-05-05T06:41:23.269Z,38.21
2023-05-05T06:46:28.336Z,34.52
2023-05-05T06:51:31.846Z,32.80
2023-05-05T06:56:34.812Z,30.97
2023-05-05T07:01:37.517Z,30.78
2023-05-05T07:06:40.404Z,28.62
2023-05-05T07:11:52.006Z,28.69
2023-05-05T07:16:54.829Z,29.40
2023-05-05T07:22:03.588Z,31.32
2023-05-05T07:32:24.306Z,31.67
2023-05-05T07:37:36.504Z,29.66
2023-05-05T07:42:39.340Z,30.10
2023-05-05T07:47:42.281Z,29.59
2023-05-05T07:52:51.824Z,29.30
2023-05-05T07:57:59.098Z,29.56
2023-05-05T08:03:01.972Z,30.00
2023-05-05T08:08:07.564Z,30.33
2023-05-05T08:13:10.335Z,31.17
2023-05-05T08:18:14.938Z,31.30
2023-05-05T08:23:17.739Z,31.21
2023-05-05T08:28:20.531Z,31.81
2023-05-05T08:33:23.273Z,32.01
2023-05-05T08:38:27.960Z,32.31
2023-05-05T08:43:31.034Z,33.17
2023-05-05T08:48:35.745Z,33.99
2023-05-05T08:53:51.755Z,34.05
2023-05-05T08:58:56.455Z,34.36
2023-05-05T09:04:04.894Z,34.79
2023-05-05T09:09:08.544Z,35.24
2023-05-05T09:19:31.736Z,36.22
2023-05-05T09:24:34.610Z,37.01
2023-05-05T09:29:37.935Z,37.87
2023-05-05T09:34:41.283Z,38.16
2023-05-05T09:39:54.767Z,38.75
2023-05-05T09:44:59.782Z,40.08
2023-05-05T09:50:11.447Z,40.35
2023-05-05T09:55:19.023Z,40.81
2023-05-05T10:00:41.804Z,40.61
2023-05-05T10:05:55.481Z,41.73
2023-05-05T10:11:08.072Z,42.35
2023-05-05T10:16:14.748Z,42.25
2023-05-05T10:21:25.674Z,41.48
2023-05-05T10:26:34.892Z,41.62
2023-05-05T10:31:47.205Z,42.39
2023-05-05T10:36:51.753Z,42.56
2023-05-05T10:41:55.882Z,42.98
2023-05-05T10:47:00.496Z,42.34
2023-05-05T10:52:06.987Z,42.21
2023-05-05T10:57:12.129Z,40.79
2023-05-05T11:02:29.605Z,40.95
2023-05-05T11:07:50.124Z,41.52
2023-05-05T11:12:58.333Z,40.17
2023-05-05T11:18:05.775Z,39.35
2023-05-05T11:23:29.977Z,39.28
2023-05-05T11:28:32.883Z,40.05
2023-05-05T11:33:37.763Z,40.25
2023-05-05T11:38:55.969Z,40.09
2023-05-05T11:44:11.905Z,39.91
2023-05-05T11:49:29.066Z,39.41
2023-05-05T11:54:32.945Z,39.57
2023-05-05T11:59:49.650Z,39.22
2023-05-05T12:04:52.994Z,40.04
2023-05-05T12:09:56.169Z,39.76
2023-05-05T12:14:59.076Z,39.09
2023-05-05T12:20:01.933Z,38.95
2023-05-05T12:25:07.013Z,38.42
2023-05-05T12:30:12.657Z,36.88
2023-05-05T12:35:16.185Z,37.07
2023-05-05T12:40:48.551Z,37.64
2023-05-05T12:46:12.224Z,37.97
2023-05-05T12:51:16.892Z,37.21
2023-05-05T12:56:38.170Z,37.38
2023-05-05T13:01:58.014Z,37.28
2023-05-05T13:07:14.910Z,36.66
2023-05-05T13:12:18.629Z,37.19
2023-05-05T13:17:21.408Z,36.59
2023-05-05T13:22:24.213Z,36.50
2023-05-05T13:27:27.319Z,37.35
2023-05-05T13:32:30.174Z,36.33
2023-05-05T13:37:33.010Z,35.78
2023-05-05T13:42:35.769Z,36.04
2023-05-05T13:47:39.087Z,36.13
2023-05-05T13:52:42.058Z,35.86
2023-05-05T13:57:44.956Z,35.72
2023-05-05T14:02:48.296Z,35.66
2023-05-05T14:07:51.363Z,35.57
2023-05-05T14:12:54.218Z,35.98
2023-05-05T14:17:57.199Z,35.46
2023-05-05T14:23:00.534Z,35.75
2023-05-05T14:28:04.172Z,35.37
2023-05-05T14:33:08.271Z,35.26
2023-05-05T14:38:11.283Z,35.42
2023-05-05T14:43:16.323Z,35.75
2023-05-05T14:48:22.256Z,35.87
2023-05-05T14:53:25.279Z,35.60
2023-05-05T14:58:28.130Z,34.82
2023-05-05T15:03:31.733Z,35.63
2023-05-05T15:08:34.952Z,35.61
2023-05-05T15:13:41.694Z,35.48
2023-05-05T15:18:44.450Z,35.20
2023-05-05T15:23:47.195Z,35.70
2023-05-05T15:28:50.467Z,35.06
2023-05-05T15:33:53.376Z,35.14
2023-05-05T15:38:56.817Z,35.58
2023-05-05T15:44:00.793Z,35.70
2023-05-05T15:49:03.720Z,35.41
2023-05-05T15:54:07.845Z,35.16
2023-05-05T15:59:10.613Z,35.00
2023-05-05T16:04:13.834Z,34.90
2023-05-05T16:09:17.709Z,35.03
2023-05-05T16:14:20.812Z,35.32
2023-05-05T16:19:30.883Z,35.68
2023-05-05T16:24:33.738Z,35.76
2023-05-05T16:29:36.798Z,36.06
2023-05-05T16:34:39.733Z,35.97
2023-05-05T16:39:42.608Z,36.23
2023-05-05T16:44:45.389Z,36.32
2023-05-05T16:49:48.223Z,36.35
2023-05-05T16:54:56.110Z,36.71
2023-05-05T16:59:59.404Z,36.95
2023-05-05T17:05:02.736Z,37.13
2023-05-05T17:10:06.902Z,37.27
2023-05-05T17:15:10.261Z,37.56
2023-05-05T17:20:13.399Z,37.73
2023-05-05T17:25:19.187Z,37.65
2023-05-05T17:30:22.189Z,37.56
2023-05-05T17:35:25.046Z,37.98
2023-05-05T17:40:28.958Z,38.17
2023-05-05T17:45:32.211Z,38.21
2023-05-05T17:50:35.023Z,38.35
2023-05-05T17:55:37.981Z,38.57
2023-05-05T18:00:40.873Z,38.67
2023-05-05T18:05:43.747Z,38.67
2023-05-05T18:10:46.709Z,38.87
2023-05-05T18:15:49.487Z,38.77
2023-05-05T18:20:52.335Z,39.08
2023-05-05T18:25:55.153Z,39.02
2023-05-05T18:30:57.923Z,39.27
2023-05-05T18:36:03.802Z,39.80
2023-05-05T18:41:06.745Z,39.93
2023-05-05T18:46:09.497Z,40.06
2023-05-05T18:51:12.297Z,40.33
2023-05-05T18:56:15.047Z,40.85
2023-05-05T19:01:18.019Z,41.21
2023-05-05T19:06:20.945Z,42.31
2023-05-05T19:11:24.087Z,43.21
2023-05-05T19:16:27.880Z,43.72
2023-05-05T19:21:32.035Z,44.47
2023-05-05T19:26:34.817Z,44.88
2023-05-05T19:31:37.551Z,45.60
2023-05-05T19:36:40.334Z,46.45
2023-05-05T19:41:43.099Z,46.72
2023-05-05T19:46:48.011Z,47.28
2023-05-05T19:51:52.167Z,47.38
2023-05-05T19:56:57.176Z,47.68
2023-05-05T20:02:01.907Z,48.41
2023-05-05T20:07:04.707Z,48.65
2023-05-05T20:12:07.753Z,49.11
2023-05-05T20:17:12.060Z,49.22
2023-05-05T20:22:14.809Z,49.61
2023-05-05T20:27:17.597Z,50.35
2023-05-05T20:32:22.242Z,50.58
2023-05-05T20:37:27.174Z,50.56
2023-05-05T20:42:31.253Z,50.94
2023-05-05T20:47:35.754Z,51.37
2023-05-05T20:52:38.718Z,51.48
2023-05-05T20:57:41.495Z,51.91
2023-05-05T21:02:44.488Z,52.22
2023-05-05T21:07:47.537Z,52.27
2023-05-05T21:12:50.473Z,52.81
2023-05-05T21:17:55.190Z,53.30
2023-05-05T21:22:57.997Z,53.58
2023-05-05T21:28:00.767Z,53.81
2023-05-05T21:33:03.765Z,54.92
2023-05-05T21:38:06.720Z,55.41
2023-05-05T21:43:09.532Z,55.74
2023-05-05T21:48:12.339Z,56.05
2023-05-05T21:53:15.332Z,56.11
2023-05-05T21:58:18.073Z,55.96
2023-05-05T22:03:21.360Z,55.92
2023-05-05T22:08:24.503Z,56.14
2023-05-05T22:13:27.312Z,56.41
2023-05-05T22:18:30.128Z,56.65
2023-05-05T22:23:32.933Z,56.69
2023-05-05T22:28:36.222Z,56.80
2023-05-05T22:33:39.036Z,56.88
2023-05-05T22:38:42.369Z,57.31
2023-05-05T22:43:45.283Z,57.26
2023-05-05T22:48:49.134Z,57.22
2023-05-05T22:53:51.975Z,57.19
2023-05-05T22:58:54.802Z,57.24
2023-05-05T23:03:57.600Z,57.03
2023-05-05T23:09:02.743Z,57.15
2023-05-05T23:14:05.535Z,57.25
2023-05-05T23:19:08.312Z,57.10
2023-05-05T23:24:11.138Z,57.03
2023-05-05T23:29:13.931Z,57.19
2023-05-05T23:34:16.876Z,57.06
2023-05-05T23:39:19.698Z,56.97
2023-05-05T23:44:22.466Z,56.83
2023-05-05T23:49:26.469Z,56.58
2023-05-05T23:54:29.495Z,56.52
2023-05-05T23:59:32.291Z,56.55
